createdAt,value
2018-09-26T00:00:24.708Z,4.80
2018-09-26T00:01:24.704Z,4.60
2018-09-26T00:02:24.697Z,4.20
2018-09-26T00:03:24.690Z,4.80
2018-09-26T00:04:24.684Z,4.30
2018-09-26T00:05:24.679Z,4.00
2018-09-26T00:06:24.672Z,4.30
2018-09-26T00:07:24.667Z,4.60
2018-09-26T00:08:24.712Z,5.50
2018-09-26T00:09:24.655Z,5.00
2018-09-26T00:10:24.647Z,4.20
2018-09-26T00:11:24.641Z,4.60
2018-09-26T00:12:24.637Z,4.60
2018-09-26T00:13:24.629Z,4.80
2018-09-26T00:14:24.622Z,4.50
2018-09-26T00:15:24.618Z,4.90
2018-09-26T00:16:24.610Z,5.00
2018-09-26T00:17:24.606Z,4.50
2018-09-26T00:18:24.598Z,4.80
2018-09-26T00:19:24.594Z,4.60
2018-09-26T00:20:24.587Z,4.80
2018-09-26T00:21:24.581Z,4.90
2018-09-26T00:22:24.574Z,4.70
2018-09-26T00:23:24.568Z,4.60
2018-09-26T00:24:24.563Z,4.50
2018-09-26T00:25:24.558Z,4.20
2018-09-26T00:26:24.549Z,4.50
2018-09-26T00:27:24.544Z,4.00
2018-09-26T00:28:24.538Z,4.50
2018-09-26T00:29:24.531Z,4.80
2018-09-26T00:30:24.525Z,5.10
2018-09-26T00:31:24.519Z,4.70
2018-09-26T00:32:24.513Z,4.50
2018-09-26T00:33:24.506Z,4.50
2018-09-26T00:34:24.499Z,4.10
2018-09-26T00:35:24.493Z,4.70
2018-09-26T00:36:24.489Z,4.50
2018-09-26T00:37:24.494Z,4.60
2018-09-26T00:38:24.474Z,4.50
2018-09-26T00:39:24.468Z,4.70
2018-09-26T00:40:24.462Z,4.70
2018-09-26T00:41:24.456Z,5.00
2018-09-26T00:42:24.449Z,5.60
2018-09-26T00:43:24.442Z,5.90
2018-09-26T00:44:24.438Z,5.40
2018-09-26T00:45:24.431Z,4.40
2018-09-26T00:46:24.425Z,4.60
2018-09-26T00:47:24.417Z,4.70
2018-09-26T00:48:24.412Z,5.20
2018-09-26T00:49:24.405Z,4.90
2018-09-26T00:50:24.400Z,5.40
2018-09-26T00:51:24.397Z,4.50
2018-09-26T00:52:24.387Z,4.60
2018-09-26T00:53:24.385Z,5.10
2018-09-26T00:54:24.374Z,5.50
2018-09-26T00:55:24.368Z,4.90
2018-09-26T00:56:24.362Z,5.10
2018-09-26T00:57:24.356Z,5.50
2018-09-26T00:58:24.348Z,5.70
2018-09-26T00:59:24.343Z,5.20
2018-09-26T01:00:24.335Z,4.30
2018-09-26T01:01:24.331Z,4.80
2018-09-26T01:02:24.322Z,5.10
2018-09-26T01:03:24.316Z,5.40
2018-09-26T01:04:24.311Z,6.10
2018-09-26T01:05:24.305Z,5.40
2018-09-26T01:06:24.297Z,5.30
2018-09-26T01:07:24.291Z,5.80
2018-09-26T01:08:24.286Z,4.80
2018-09-26T01:09:24.280Z,5.70
2018-09-26T01:10:24.272Z,5.70
2018-09-26T01:11:24.267Z,4.70
2018-09-26T01:12:24.259Z,4.40
2018-09-26T01:13:24.253Z,5.00
2018-09-26T01:14:24.247Z,4.90
2018-09-26T01:15:24.245Z,5.20
2018-09-26T01:16:24.236Z,5.50
2018-09-26T01:17:24.229Z,5.60
2018-09-26T01:18:24.220Z,5.40
2018-09-26T01:19:24.214Z,5.30
2018-09-26T01:20:24.208Z,4.60
2018-09-26T01:21:24.202Z,5.00
2018-09-26T01:22:24.196Z,5.10
2018-09-26T01:23:24.190Z,5.20
2018-09-26T01:24:24.183Z,4.70
2018-09-26T01:25:24.178Z,4.70
2018-09-26T01:26:24.175Z,4.90
2018-09-26T01:27:24.171Z,4.90
2018-09-26T01:28:24.157Z,5.30
2018-09-26T01:29:24.151Z,6.10
2018-09-26T01:30:24.145Z,5.90
2018-09-26T01:31:24.138Z,6.20
2018-09-26T01:32:24.132Z,6.20
2018-09-26T01:33:24.127Z,5.60
2018-09-26T01:34:24.121Z,5.70
2018-09-26T01:35:24.112Z,5.30
2018-09-26T01:36:24.108Z,5.30
2018-09-26T01:37:24.100Z,6.10
2018-09-26T01:38:24.094Z,6.00
2018-09-26T01:39:24.087Z,5.90
2018-09-26T01:40:24.080Z,6.00
2018-09-26T01:41:24.102Z,6.50
2018-09-26T01:42:24.067Z,6.10
2018-09-26T01:43:24.062Z,6.30
2018-09-26T01:44:24.055Z,5.90
2018-09-26T01:45:24.049Z,5.40
2018-09-26T01:46:24.041Z,6.40
2018-09-26T01:47:24.036Z,5.50
2018-09-26T01:48:24.030Z,6.00
2018-09-26T01:49:24.024Z,5.60
2018-09-26T01:50:24.017Z,6.40
2018-09-26T01:51:24.010Z,7.40
2018-09-26T01:52:24.004Z,6.90
2018-09-26T01:53:23.997Z,6.90
2018-09-26T01:54:23.989Z,6.60
2018-09-26T01:55:23.983Z,7.30
2018-09-26T01:56:23.980Z,6.30
2018-09-26T01:57:23.971Z,7.30
2018-09-26T01:58:23.963Z,7.30
2018-09-26T01:59:23.959Z,7.20
2018-09-26T02:00:23.952Z,6.60
2018-09-26T02:01:23.946Z,6.70
2018-09-26T02:02:23.937Z,6.30
2018-09-26T02:03:23.931Z,6.80
2018-09-26T02:04:23.926Z,6.40
2018-09-26T02:05:23.918Z,7.00
2018-09-26T02:06:23.911Z,5.90
2018-09-26T02:07:23.904Z,5.50
2018-09-26T02:08:23.898Z,5.90
2018-09-26T02:09:23.893Z,5.10
2018-09-26T02:10:23.886Z,4.90
2018-09-26T02:11:23.878Z,5.60
2018-09-26T02:12:23.873Z,5.40
2018-09-26T02:13:23.866Z,5.10
2018-09-26T02:14:23.860Z,5.60
2018-09-26T02:15:23.852Z,6.00
2018-09-26T02:16:23.846Z,5.90
2018-09-26T02:17:23.839Z,5.10
2018-09-26T02:18:23.833Z,5.20
2018-09-26T02:19:23.827Z,5.00
2018-09-26T02:20:23.821Z,4.90
2018-09-26T02:21:23.814Z,5.30
2018-09-26T02:22:23.807Z,5.50
2018-09-26T02:23:23.801Z,5.50
2018-09-26T02:24:23.800Z,5.50
2018-09-26T02:25:23.792Z,5.30
2018-09-26T02:26:23.780Z,5.00
2018-09-26T02:27:23.775Z,5.20
2018-09-26T02:28:23.768Z,5.40
2018-09-26T02:29:23.761Z,5.70
2018-09-26T02:30:23.754Z,5.40
2018-09-26T02:31:23.750Z,5.80
2018-09-26T02:32:23.741Z,6.60
2018-09-26T02:33:23.736Z,6.00
2018-09-26T02:34:23.728Z,5.20
2018-09-26T02:35:23.724Z,4.90
2018-09-26T02:36:23.715Z,5.30
2018-09-26T02:37:23.709Z,5.40
2018-09-26T02:38:23.701Z,4.90
2018-09-26T02:39:23.696Z,5.10
2018-09-26T02:40:23.689Z,5.90
2018-09-26T02:41:23.683Z,5.30
2018-09-26T02:42:23.676Z,5.00
2018-09-26T02:43:23.668Z,5.40
2018-09-26T02:44:23.663Z,5.00
2018-09-26T02:45:23.656Z,5.30
2018-09-26T02:46:23.649Z,5.10
2018-09-26T02:47:23.642Z,5.00
2018-09-26T02:48:23.634Z,4.90
2018-09-26T02:49:23.629Z,5.80
2018-09-26T02:50:23.621Z,4.50
2018-09-26T02:51:23.620Z,4.90
2018-09-26T02:52:23.608Z,5.20
2018-09-26T02:53:23.602Z,4.80
2018-09-26T02:54:23.595Z,4.30
2018-09-26T02:55:23.589Z,5.00
2018-09-26T02:56:23.585Z,3.90
2018-09-26T02:57:23.575Z,5.20
2018-09-26T02:58:23.570Z,4.40
2018-09-26T02:59:23.563Z,4.60
2018-09-26T03:00:23.555Z,4.40
2018-09-26T03:01:23.548Z,4.60
2018-09-26T03:02:23.542Z,5.00
2018-09-26T03:03:23.536Z,4.60
2018-09-26T03:04:23.528Z,4.90
2018-09-26T03:05:23.574Z,4.60
2018-09-26T03:06:23.517Z,4.50
2018-09-26T03:07:23.509Z,4.70
2018-09-26T03:08:23.503Z,4.40
2018-09-26T03:09:23.495Z,4.00
2018-09-26T03:10:23.489Z,4.30
2018-09-26T03:11:23.481Z,4.50
2018-09-26T03:12:23.477Z,3.80
2018-09-26T03:13:23.470Z,4.10
2018-09-26T03:14:23.462Z,4.40
2018-09-26T03:15:23.455Z,4.00
2018-09-26T03:16:23.449Z,4.40
2018-09-26T03:17:23.493Z,3.80
2018-09-26T03:18:23.435Z,4.30
2018-09-26T03:19:23.430Z,4.60
2018-09-26T03:20:23.424Z,3.90
2018-09-26T03:21:23.417Z,3.90
2018-09-26T03:22:23.409Z,4.20
2018-09-26T03:23:23.403Z,4.50
2018-09-26T03:24:23.397Z,4.00
2018-09-26T03:25:23.390Z,3.80
2018-09-26T03:26:23.383Z,4.20
2018-09-26T03:27:23.396Z,4.30
2018-09-26T03:28:23.370Z,4.80
2018-09-26T03:29:23.363Z,4.00
2018-09-26T03:30:23.359Z,4.30
2018-09-26T03:31:23.350Z,4.10
2018-09-26T03:32:23.344Z,3.70
2018-09-26T03:33:23.337Z,4.20
2018-09-26T03:34:23.330Z,3.90
2018-09-26T03:35:23.322Z,3.60
2018-09-26T03:36:23.316Z,3.30
2018-09-26T03:37:23.309Z,3.30
2018-09-26T03:38:23.303Z,3.40
2018-09-26T03:39:23.295Z,3.10
2018-09-26T03:40:23.288Z,3.20
2018-09-26T03:41:23.286Z,3.20
2018-09-26T03:42:23.276Z,2.60
2018-09-26T03:43:23.268Z,3.70
2018-09-26T03:44:23.262Z,3.10
2018-09-26T03:45:23.256Z,3.10
2018-09-26T03:46:23.250Z,3.50
2018-09-26T03:47:23.242Z,3.10
2018-09-26T03:48:23.241Z,3.30
2018-09-26T03:49:23.230Z,3.40
2018-09-26T03:50:23.223Z,3.00
2018-09-26T03:51:23.215Z,3.40
2018-09-26T03:52:23.210Z,3.50
2018-09-26T03:53:23.202Z,3.30
2018-09-26T03:54:23.198Z,3.30
2018-09-26T03:55:23.189Z,3.80
2018-09-26T03:56:23.182Z,3.60
2018-09-26T03:57:23.175Z,3.10
2018-09-26T03:58:23.169Z,3.20
2018-09-26T03:59:23.162Z,3.60
2018-09-26T04:00:23.155Z,3.20
2018-09-26T04:01:23.148Z,3.40
2018-09-26T04:02:23.142Z,3.50
2018-09-26T04:03:23.136Z,3.10
2018-09-26T04:04:23.128Z,3.00
2018-09-26T04:05:23.124Z,3.40
2018-09-26T04:06:23.114Z,3.60
2018-09-26T04:07:23.110Z,3.50
2018-09-26T04:08:23.102Z,3.40
2018-09-26T04:09:23.096Z,2.90
2018-09-26T04:10:23.091Z,3.30
2018-09-26T04:11:23.081Z,2.80
2018-09-26T04:12:23.073Z,3.10
2018-09-26T04:13:23.067Z,3.50
2018-09-26T04:14:23.061Z,3.20
2018-09-26T04:15:23.054Z,3.20
2018-09-26T04:16:23.047Z,2.80
2018-09-26T04:17:23.040Z,3.10
2018-09-26T04:18:23.036Z,3.10
2018-09-26T04:19:23.027Z,3.10
2018-09-26T04:20:23.027Z,2.90
2018-09-26T04:21:23.016Z,2.90
2018-09-26T04:22:23.007Z,3.00
2018-09-26T04:23:23.001Z,3.00
2018-09-26T04:24:22.993Z,3.00
2018-09-26T04:25:22.986Z,2.50
2018-09-26T04:26:23.005Z,2.70
2018-09-26T04:27:23.019Z,2.90
2018-09-26T04:28:22.966Z,2.90
2018-09-26T04:29:22.959Z,2.50
2018-09-26T04:30:22.970Z,2.60
2018-09-26T04:31:22.945Z,2.80
2018-09-26T04:32:22.978Z,2.50
2018-09-26T04:33:23.107Z,2.40
2018-09-26T04:34:22.923Z,2.80
2018-09-26T04:35:22.919Z,2.60
2018-09-26T04:36:22.911Z,3.00
2018-09-26T04:37:22.905Z,2.80
2018-09-26T04:38:22.900Z,2.50
2018-09-26T04:39:22.889Z,3.30
2018-09-26T04:40:22.883Z,3.20
2018-09-26T04:41:22.877Z,2.70
2018-09-26T04:42:22.874Z,2.50
2018-09-26T04:43:22.931Z,2.90
2018-09-26T04:44:22.856Z,2.80
2018-09-26T04:45:22.850Z,2.50
2018-09-26T04:46:22.841Z,2.40
2018-09-26T04:47:22.834Z,2.80
2018-09-26T04:48:22.827Z,2.20
2018-09-26T04:49:22.822Z,2.40
2018-09-26T04:50:22.816Z,2.40
2018-09-26T04:51:22.807Z,2.10
2018-09-26T04:52:22.801Z,1.90
2018-09-26T04:53:22.794Z,2.10
2018-09-26T04:54:22.787Z,2.40
2018-09-26T04:55:22.778Z,2.70
2018-09-26T04:56:22.772Z,2.20
2018-09-26T04:57:22.767Z,2.30
2018-09-26T04:58:22.815Z,2.50
2018-09-26T04:59:22.750Z,2.30
2018-09-26T05:00:22.745Z,2.10
2018-09-26T05:01:22.752Z,2.10
2018-09-26T05:02:22.732Z,2.10
2018-09-26T05:03:22.726Z,2.00
2018-09-26T05:04:22.719Z,1.90
2018-09-26T05:05:22.713Z,2.50
2018-09-26T05:06:22.704Z,2.20
2018-09-26T05:07:22.697Z,2.60
2018-09-26T05:08:22.788Z,2.90
2018-09-26T05:09:22.683Z,3.90
2018-09-26T05:10:22.676Z,3.70
2018-09-26T05:11:22.670Z,5.00
2018-09-26T05:12:22.662Z,4.40
2018-09-26T05:13:22.656Z,4.30
2018-09-26T05:14:22.653Z,4.30
2018-09-26T05:15:22.642Z,3.30
2018-09-26T05:16:22.635Z,3.90
2018-09-26T05:17:22.627Z,3.10
2018-09-26T05:18:22.620Z,3.80
2018-09-26T05:19:22.614Z,3.00
2018-09-26T05:20:22.608Z,2.90
2018-09-26T05:21:22.600Z,2.60
2018-09-26T05:22:22.595Z,3.40
2018-09-26T05:23:22.588Z,3.40
2018-09-26T05:24:22.580Z,3.70
2018-09-26T05:25:22.573Z,7.70
2018-09-26T05:26:22.565Z,16.00
2018-09-26T05:27:22.561Z,13.60
2018-09-26T05:28:22.551Z,10.60
2018-09-26T05:29:22.544Z,11.90
2018-09-26T05:30:22.571Z,9.60
2018-09-26T05:31:22.530Z,8.30
2018-09-26T05:32:22.523Z,6.70
2018-09-26T05:33:22.517Z,7.10
2018-09-26T05:34:22.510Z,6.90
2018-09-26T05:35:22.502Z,6.50
2018-09-26T05:36:22.497Z,6.90
2018-09-26T05:37:22.489Z,6.60
2018-09-26T05:38:22.483Z,6.80
2018-09-26T05:39:22.474Z,7.30
2018-09-26T05:40:22.468Z,4.70
2018-09-26T05:41:22.461Z,4.60
2018-09-26T05:42:22.457Z,3.10
2018-09-26T05:43:22.448Z,2.60
2018-09-26T05:44:22.441Z,2.40
2018-09-26T05:45:22.434Z,2.60
2018-09-26T05:46:22.427Z,2.60
2018-09-26T05:47:22.420Z,2.30
2018-09-26T05:48:22.413Z,2.70
2018-09-26T05:49:22.406Z,2.40
2018-09-26T05:50:22.398Z,2.90
2018-09-26T05:51:22.393Z,2.70
2018-09-26T05:52:22.386Z,2.60
2018-09-26T05:53:22.406Z,2.40
2018-09-26T05:54:22.371Z,2.30
2018-09-26T05:55:22.365Z,2.10
2018-09-26T05:56:22.361Z,1.90
2018-09-26T05:57:22.352Z,2.20
2018-09-26T05:58:22.344Z,2.50
2018-09-26T05:59:22.336Z,3.00
2018-09-26T06:00:22.331Z,2.30
2018-09-26T06:01:22.324Z,2.60
2018-09-26T06:02:22.316Z,3.00
2018-09-26T06:03:22.310Z,3.10
2018-09-26T06:04:22.303Z,3.50
2018-09-26T06:05:22.342Z,2.80
2018-09-26T06:06:22.289Z,3.60
2018-09-26T06:07:22.282Z,3.10
2018-09-26T06:08:22.277Z,3.00
2018-09-26T06:09:22.269Z,2.90
2018-09-26T06:10:22.262Z,2.60
2018-09-26T06:11:22.308Z,2.80
2018-09-26T06:12:22.250Z,2.70
2018-09-26T06:13:22.242Z,2.40
2018-09-26T06:14:22.237Z,3.50
2018-09-26T06:15:22.228Z,3.00
2018-09-26T06:16:22.224Z,3.00
2018-09-26T06:17:22.217Z,2.70
2018-09-26T06:18:22.210Z,3.00
2018-09-26T06:19:22.203Z,3.00
2018-09-26T06:20:22.197Z,3.50
2018-09-26T06:21:22.190Z,3.40
2018-09-26T06:22:22.183Z,3.30
2018-09-26T06:23:22.177Z,4.00
2018-09-26T06:24:22.170Z,3.30
2018-09-26T06:25:22.165Z,3.20
2018-09-26T06:26:22.158Z,3.10
2018-09-26T06:27:22.152Z,2.80
2018-09-26T06:28:22.146Z,3.30
2018-09-26T06:29:22.139Z,3.30
2018-09-26T06:30:22.133Z,3.50
2018-09-26T06:31:22.125Z,4.00
2018-09-26T06:32:22.118Z,3.60
2018-09-26T06:33:22.112Z,3.30
2018-09-26T06:34:22.105Z,2.60
2018-09-26T06:35:22.100Z,2.60
2018-09-26T06:36:22.093Z,2.80
2018-09-26T06:37:22.088Z,2.40
2018-09-26T06:38:22.080Z,2.10
2018-09-26T06:39:22.075Z,2.10
2018-09-26T06:40:22.087Z,1.60
2018-09-26T06:41:22.063Z,1.80
2018-09-26T06:42:22.059Z,2.10
2018-09-26T06:43:22.052Z,1.90
2018-09-26T06:44:22.044Z,1.90
2018-09-26T06:45:22.039Z,2.40
2018-09-26T06:46:22.031Z,2.20
2018-09-26T06:47:22.078Z,2.10
2018-09-26T06:48:22.020Z,2.10
2018-09-26T06:49:22.015Z,1.90
2018-09-26T06:50:22.007Z,1.70
2018-09-26T06:51:22.000Z,2.00
2018-09-26T06:52:21.994Z,1.50
2018-09-26T06:53:21.989Z,1.90
2018-09-26T06:54:21.983Z,1.60
2018-09-26T06:55:21.982Z,1.80
2018-09-26T06:56:21.971Z,1.70
2018-09-26T06:57:21.969Z,1.70
2018-09-26T06:58:21.961Z,1.80
2018-09-26T06:59:21.959Z,1.70
2018-09-26T07:00:21.978Z,1.40
2018-09-26T07:01:21.943Z,1.50
2018-09-26T07:02:21.937Z,1.80
2018-09-26T07:03:21.932Z,1.70
2018-09-26T07:04:21.926Z,2.10
2018-09-26T07:05:21.922Z,1.90
2018-09-26T07:06:21.919Z,1.80
2018-09-26T07:07:21.909Z,2.10
2018-09-26T07:08:21.903Z,1.60
2018-09-26T07:09:21.898Z,1.30
2018-09-26T07:10:21.895Z,1.80
2018-09-26T07:11:21.888Z,1.60
2018-09-26T07:12:21.883Z,1.30
2018-09-26T07:13:21.877Z,1.80
2018-09-26T07:14:21.870Z,1.80
2018-09-26T07:15:21.865Z,1.80
2018-09-26T07:16:21.860Z,1.30
2018-09-26T07:17:21.856Z,1.50
2018-09-26T07:18:21.850Z,1.80
2018-09-26T07:19:21.845Z,1.70
2018-09-26T07:20:21.839Z,1.80
2018-09-26T07:21:21.836Z,2.00
2018-09-26T07:22:21.828Z,2.10
2018-09-26T07:23:21.826Z,1.50
2018-09-26T07:24:21.822Z,1.50
2018-09-26T07:25:21.816Z,1.60
2018-09-26T07:26:21.809Z,2.20
2018-09-26T07:27:21.804Z,1.90
2018-09-26T07:28:21.800Z,1.80
2018-09-26T07:29:21.795Z,1.50
2018-09-26T07:30:21.790Z,1.90
2018-09-26T07:31:21.822Z,1.50
2018-09-26T07:32:21.780Z,1.50
2018-09-26T07:33:21.777Z,2.00
2018-09-26T07:34:21.771Z,1.60
2018-09-26T07:35:21.765Z,2.00
2018-09-26T07:36:21.763Z,1.50
2018-09-26T07:37:21.758Z,2.60
2018-09-26T07:38:21.800Z,1.60
2018-09-26T07:39:21.747Z,1.70
2018-09-26T07:40:21.743Z,1.70
2018-09-26T07:41:21.741Z,1.70
2018-09-26T07:42:21.734Z,2.10
2018-09-26T07:43:21.730Z,1.80
2018-09-26T07:44:21.725Z,1.60
2018-09-26T07:45:21.786Z,1.60
2018-09-26T07:46:21.716Z,2.00
2018-09-26T07:47:21.711Z,1.90
2018-09-26T07:48:21.708Z,1.70
2018-09-26T07:49:21.703Z,1.90
2018-09-26T07:50:21.698Z,1.70
2018-09-26T07:51:21.695Z,1.40
2018-09-26T07:52:21.690Z,1.50
2018-09-26T07:53:21.691Z,1.90
2018-09-26T07:54:21.682Z,1.30
2018-09-26T07:55:21.678Z,2.20
2018-09-26T07:56:21.674Z,1.60
2018-09-26T07:57:21.670Z,1.70
2018-09-26T07:58:21.664Z,1.60
2018-09-26T07:59:21.662Z,1.70
2018-09-26T08:00:21.655Z,1.60
2018-09-26T08:01:21.655Z,1.60
2018-09-26T08:02:21.649Z,1.50
2018-09-26T08:03:21.646Z,1.30
2018-09-26T08:04:21.642Z,1.30
2018-09-26T08:05:21.649Z,1.50
2018-09-26T08:06:21.632Z,1.40
2018-09-26T08:07:21.629Z,1.70
2018-09-26T08:08:21.626Z,1.60
2018-09-26T08:09:21.623Z,1.60
2018-09-26T08:10:21.616Z,1.50
2018-09-26T08:11:21.624Z,1.60
2018-09-26T08:12:21.608Z,1.40
2018-09-26T08:13:21.606Z,1.80
2018-09-26T08:14:21.601Z,1.30
2018-09-26T08:15:21.598Z,1.60
2018-09-26T08:16:21.595Z,1.60
2018-09-26T08:17:21.590Z,1.70
2018-09-26T08:18:21.611Z,1.50
2018-09-26T08:19:21.586Z,1.30
2018-09-26T08:20:21.580Z,1.10
2018-09-26T08:21:21.576Z,1.30
2018-09-26T08:22:21.571Z,1.30
2018-09-26T08:23:21.569Z,1.50
2018-09-26T08:24:21.626Z,1.60
2018-09-26T08:25:21.563Z,1.40
2018-09-26T08:26:21.560Z,1.20
2018-09-26T08:27:21.555Z,1.70
2018-09-26T08:28:21.552Z,1.20
2018-09-26T08:29:21.548Z,0.90
2018-09-26T08:30:21.552Z,1.40
2018-09-26T08:31:21.543Z,1.10
2018-09-26T08:32:21.539Z,1.40
2018-09-26T08:33:21.536Z,1.10
2018-09-26T08:34:21.532Z,1.40
2018-09-26T08:35:21.530Z,1.00
2018-09-26T08:36:21.527Z,1.10
2018-09-26T08:37:21.523Z,1.40
2018-09-26T08:38:21.519Z,1.30
2018-09-26T08:39:21.517Z,1.10
2018-09-26T08:40:21.514Z,1.20
2018-09-26T08:41:21.512Z,1.00
2018-09-26T08:42:21.511Z,1.30
2018-09-26T08:43:21.505Z,1.00
2018-09-26T08:44:21.502Z,1.20
2018-09-26T08:45:21.500Z,1.10
2018-09-26T08:46:21.496Z,1.40
2018-09-26T08:47:21.495Z,1.20
2018-09-26T08:48:21.493Z,1.30
2018-09-26T08:49:21.490Z,1.20
2018-09-26T08:50:21.485Z,1.20
2018-09-26T08:51:21.484Z,0.90
2018-09-26T08:52:21.481Z,1.20
2018-09-26T08:53:21.479Z,1.10
2018-09-26T08:54:21.476Z,0.90
2018-09-26T08:55:21.474Z,1.50
2018-09-26T08:56:21.471Z,1.00
2018-09-26T08:57:21.470Z,1.10
2018-09-26T08:58:21.465Z,1.40
2018-09-26T08:59:21.462Z,0.80
2018-09-26T09:00:21.463Z,0.80
2018-09-26T09:01:21.461Z,1.20
2018-09-26T09:02:21.457Z,1.10
2018-09-26T09:03:21.459Z,0.80
2018-09-26T09:04:21.456Z,0.90
2018-09-26T09:05:21.455Z,0.90
2018-09-26T09:06:21.515Z,0.70
2018-09-26T09:07:21.458Z,0.90
2018-09-26T09:08:21.452Z,1.00
2018-09-26T09:09:21.453Z,1.00
2018-09-26T09:10:21.451Z,1.10
2018-09-26T09:11:21.453Z,1.10
2018-09-26T09:12:21.453Z,1.10
2018-09-26T09:13:21.454Z,1.70
2018-09-26T09:14:21.506Z,1.10
2018-09-26T09:15:21.454Z,1.30
2018-09-26T09:16:21.459Z,1.00
2018-09-26T09:17:21.457Z,1.50
2018-09-26T09:18:21.464Z,1.40
2018-09-26T09:19:21.460Z,0.80
2018-09-26T09:20:21.524Z,0.90
2018-09-26T09:21:21.461Z,1.10
2018-09-26T09:22:21.461Z,1.40
2018-09-26T09:23:21.466Z,1.00
2018-09-26T09:24:21.464Z,1.00
2018-09-26T09:25:21.468Z,1.00
2018-09-26T09:26:21.525Z,1.20
2018-09-26T09:27:21.530Z,0.90
2018-09-26T09:28:21.472Z,1.10
2018-09-26T09:29:21.474Z,1.10
2018-09-26T09:30:21.475Z,1.10
2018-09-26T09:31:21.477Z,1.00
2018-09-26T09:32:21.499Z,1.20
2018-09-26T09:33:21.481Z,1.10
2018-09-26T09:34:21.482Z,1.30
2018-09-26T09:35:21.483Z,1.40
2018-09-26T09:36:21.523Z,1.20
2018-09-26T09:37:21.487Z,1.10
2018-09-26T09:38:21.540Z,1.00
2018-09-26T09:39:21.491Z,0.90
2018-09-26T09:40:21.491Z,1.10
2018-09-26T09:41:21.494Z,1.10
2018-09-26T09:42:21.494Z,1.40
2018-09-26T09:43:21.497Z,0.90
2018-09-26T09:44:21.521Z,1.20
2018-09-26T09:45:21.502Z,1.20
2018-09-26T09:46:21.502Z,1.10
2018-09-26T09:47:21.509Z,1.40
2018-09-26T09:48:21.506Z,1.50
2018-09-26T09:49:21.509Z,1.10
2018-09-26T09:50:21.542Z,1.30
2018-09-26T09:51:21.513Z,1.30
2018-09-26T09:52:21.514Z,1.00
2018-09-26T09:53:21.517Z,1.10
2018-09-26T09:54:21.518Z,1.10
2018-09-26T09:55:21.520Z,1.20
2018-09-26T09:56:21.553Z,0.90
2018-09-26T09:57:21.524Z,1.40
2018-09-26T09:58:21.526Z,1.00
2018-09-26T09:59:21.526Z,1.40
2018-09-26T10:00:21.528Z,1.10
2018-09-26T10:01:21.533Z,1.10
2018-09-26T10:02:21.641Z,1.10
2018-09-26T10:03:21.536Z,1.00
2018-09-26T10:04:21.538Z,1.50
2018-09-26T10:05:21.537Z,1.10
2018-09-26T10:06:21.538Z,1.30
2018-09-26T10:07:21.540Z,1.40
2018-09-26T10:08:21.599Z,1.50
2018-09-26T10:09:21.541Z,1.10
2018-09-26T10:10:21.542Z,1.30
2018-09-26T10:11:21.543Z,1.40
2018-09-26T10:12:21.544Z,1.30
2018-09-26T10:13:21.545Z,1.10
2018-09-26T10:14:21.560Z,1.40
2018-09-26T10:15:21.549Z,1.00
2018-09-26T10:16:21.550Z,1.20
2018-09-26T10:17:21.572Z,1.10
2018-09-26T10:18:21.552Z,1.30
2018-09-26T10:19:21.551Z,1.60
2018-09-26T10:20:21.613Z,1.60
2018-09-26T10:21:21.552Z,1.10
2018-09-26T10:22:21.551Z,1.10
2018-09-26T10:23:21.556Z,0.90
2018-09-26T10:24:21.555Z,1.10
2018-09-26T10:25:21.555Z,1.10
2018-09-26T10:26:21.630Z,1.30
2018-09-26T10:27:21.557Z,1.40
2018-09-26T10:28:21.558Z,1.20
2018-09-26T10:29:21.560Z,1.40
2018-09-26T10:30:21.560Z,1.20
2018-09-26T10:31:21.563Z,1.20
2018-09-26T10:32:21.643Z,1.30
2018-09-26T10:33:21.566Z,1.20
2018-09-26T10:34:21.564Z,1.00
2018-09-26T10:35:21.567Z,1.50
2018-09-26T10:36:21.565Z,1.20
2018-09-26T10:37:21.566Z,1.50
2018-09-26T10:38:21.666Z,1.50
2018-09-26T10:39:21.571Z,1.60
2018-09-26T10:40:21.570Z,1.20
2018-09-26T10:41:21.570Z,1.40
2018-09-26T10:42:21.570Z,1.30
2018-09-26T10:43:21.572Z,1.60
2018-09-26T10:44:21.632Z,1.10
2018-09-26T10:45:21.573Z,1.40
2018-09-26T10:46:21.572Z,1.40
2018-09-26T10:47:21.575Z,1.40
2018-09-26T10:48:21.573Z,0.90
2018-09-26T10:49:21.574Z,1.20
2018-09-26T10:50:21.663Z,1.30
2018-09-26T10:51:21.574Z,1.20
2018-09-26T10:52:21.575Z,1.30
2018-09-26T10:53:21.576Z,1.40
2018-09-26T10:54:21.576Z,1.50
2018-09-26T10:55:21.576Z,1.00
2018-09-26T10:56:21.622Z,1.00
2018-09-26T10:57:21.579Z,1.30
2018-09-26T10:58:21.577Z,1.10
2018-09-26T10:59:21.579Z,1.30
2018-09-26T11:00:21.578Z,1.60
2018-09-26T11:01:21.578Z,1.50
2018-09-26T11:02:21.633Z,2.00
2018-09-26T11:03:21.579Z,1.20
2018-09-26T11:04:21.620Z,1.40
2018-09-26T11:05:21.578Z,1.30
2018-09-26T11:06:21.578Z,1.20
2018-09-26T11:07:21.580Z,1.10
2018-09-26T11:08:21.615Z,1.30
2018-09-26T11:09:21.580Z,1.20
2018-09-26T11:10:21.603Z,1.00
2018-09-26T11:11:21.584Z,1.00
2018-09-26T11:12:21.580Z,0.80
2018-09-26T11:13:21.580Z,1.20
2018-09-26T11:14:21.602Z,0.90
2018-09-26T11:15:21.637Z,0.90
2018-09-26T11:16:21.646Z,0.80
2018-09-26T11:17:21.581Z,1.00
2018-09-26T11:18:21.578Z,1.00
2018-09-26T11:19:21.579Z,1.00
2018-09-26T11:20:21.624Z,1.40
2018-09-26T11:21:21.650Z,1.50
2018-09-26T11:22:21.647Z,1.50
2018-09-26T11:23:21.577Z,0.80
2018-09-26T11:24:21.579Z,1.10
2018-09-26T11:25:21.579Z,1.00
2018-09-26T11:26:21.622Z,0.90
2018-09-26T11:27:21.578Z,0.80
2018-09-26T11:28:21.610Z,1.30
2018-09-26T11:29:21.579Z,1.00
2018-09-26T11:30:21.577Z,1.00
2018-09-26T11:31:21.575Z,1.50
2018-09-26T11:32:21.628Z,0.80
2018-09-26T11:33:21.615Z,1.10
2018-09-26T11:34:21.616Z,1.00
2018-09-26T11:35:21.576Z,0.80
2018-09-26T11:36:21.574Z,1.10
2018-09-26T11:37:21.575Z,1.20
2018-09-26T11:38:21.645Z,1.10
2018-09-26T11:39:21.574Z,1.20
2018-09-26T11:40:21.612Z,1.10
2018-09-26T11:41:21.575Z,1.10
2018-09-26T11:42:21.572Z,0.80
2018-09-26T11:43:21.577Z,1.00
2018-09-26T11:44:21.648Z,0.80
2018-09-26T11:45:21.572Z,0.90
2018-09-26T11:46:21.631Z,1.00
2018-09-26T11:47:21.571Z,1.10
2018-09-26T11:48:21.572Z,1.20
2018-09-26T11:49:21.573Z,0.90
2018-09-26T11:50:21.639Z,0.80
2018-09-26T11:51:21.572Z,0.80
2018-09-26T11:52:21.616Z,1.10
2018-09-26T11:53:21.572Z,1.00
2018-09-26T11:54:21.569Z,1.00
2018-09-26T11:55:21.571Z,0.70
2018-09-26T11:56:21.574Z,0.90
2018-09-26T11:57:21.571Z,0.90
2018-09-26T11:58:21.637Z,1.00
2018-09-26T11:59:21.569Z,0.80
2018-09-26T12:00:21.569Z,0.90
2018-09-26T12:01:21.570Z,1.00
2018-09-26T12:02:21.635Z,0.70
2018-09-26T12:03:21.568Z,0.80
2018-09-26T12:04:21.603Z,0.80
2018-09-26T12:05:21.568Z,1.20
2018-09-26T12:06:21.573Z,0.80
2018-09-26T12:07:21.573Z,1.20
2018-09-26T12:08:21.659Z,0.70
2018-09-26T12:09:21.566Z,1.10
2018-09-26T12:10:21.653Z,0.90
2018-09-26T12:11:21.564Z,1.10
2018-09-26T12:12:21.604Z,0.80
2018-09-26T12:13:21.565Z,0.80
2018-09-26T12:14:21.563Z,1.10
2018-09-26T12:15:21.563Z,0.80
2018-09-26T12:16:21.581Z,0.90
2018-09-26T12:17:21.564Z,1.00
2018-09-26T12:18:21.590Z,1.40
2018-09-26T12:19:21.584Z,1.10
2018-09-26T12:20:21.562Z,0.80
2018-09-26T12:21:30.354Z,0.90
2018-09-26T12:22:21.614Z,1.10
2018-09-26T12:23:21.563Z,0.70
2018-09-26T12:24:21.600Z,1.00
2018-09-26T12:25:21.634Z,0.90
2018-09-26T12:26:21.561Z,0.90
2018-09-26T12:27:21.557Z,1.00
2018-09-26T12:28:21.578Z,0.70
2018-09-26T12:29:21.558Z,0.60
2018-09-26T12:30:21.628Z,1.10
2018-09-26T12:31:21.563Z,0.80
2018-09-26T12:32:21.561Z,0.80
2018-09-26T12:33:21.559Z,1.10
2018-09-26T12:34:21.621Z,1.10
2018-09-26T12:35:21.557Z,0.90
2018-09-26T12:36:21.624Z,1.00
2018-09-26T12:37:21.557Z,1.10
2018-09-26T12:38:21.557Z,0.90
2018-09-26T12:39:21.559Z,1.10
2018-09-26T12:40:21.658Z,0.90
2018-09-26T12:41:21.558Z,1.30
2018-09-26T12:42:21.604Z,1.00
2018-09-26T12:43:21.556Z,1.00
2018-09-26T12:44:21.557Z,1.00
2018-09-26T12:45:21.555Z,1.00
2018-09-26T12:46:21.622Z,0.90
2018-09-26T12:47:21.634Z,0.90
2018-09-26T12:48:21.583Z,0.80
2018-09-26T12:49:21.554Z,1.10
2018-09-26T12:50:21.554Z,1.10
2018-09-26T12:51:21.554Z,1.70
2018-09-26T12:52:21.607Z,0.80
2018-09-26T12:53:21.584Z,1.20
2018-09-26T12:54:21.558Z,1.00
2018-09-26T12:55:21.553Z,0.90
2018-09-26T12:56:21.553Z,0.90
2018-09-26T12:57:21.554Z,0.80
2018-09-26T12:58:21.672Z,0.80
2018-09-26T12:59:21.554Z,0.70
2018-09-26T13:00:21.591Z,1.10
2018-09-26T13:01:21.554Z,0.80
2018-09-26T13:02:21.656Z,1.00
2018-09-26T13:03:21.613Z,1.10
2018-09-26T13:04:21.575Z,0.90
2018-09-26T13:05:21.554Z,0.70
2018-09-26T13:06:21.592Z,1.40
2018-09-26T13:07:21.553Z,0.90
2018-09-26T13:08:21.594Z,0.60
2018-09-26T13:09:21.554Z,0.80
2018-09-26T13:10:21.627Z,0.90
2018-09-26T13:11:21.557Z,1.10
2018-09-26T13:12:21.576Z,0.80
2018-09-26T13:13:21.557Z,0.90
2018-09-26T13:14:21.569Z,0.80
2018-09-26T13:15:21.556Z,0.70
2018-09-26T13:16:21.653Z,1.00
2018-09-26T13:17:21.557Z,0.90
2018-09-26T13:18:21.646Z,0.80